createdAt,value
2018-08-04T00:01:03.386Z,20.85
2018-08-04T00:03:31.928Z,20.71
2018-08-04T00:06:00.445Z,20.67
2018-08-04T00:08:29.377Z,20.64
2018-08-04T00:10:57.857Z,20.54
2018-08-04T00:13:26.367Z,20.51
2018-08-04T00:15:54.901Z,20.39
2018-08-04T00:18:23.437Z,20.32
2018-08-04T00:20:51.965Z,20.21
2018-08-04T00:23:20.484Z,20.15
2018-08-04T00:25:48.997Z,20.08
2018-08-04T00:28:17.470Z,20.02
2018-08-04T00:30:45.992Z,20.02
2018-08-04T00:33:14.457Z,19.92
2018-08-04T00:35:43.000Z,19.95
2018-08-04T00:38:11.492Z,19.89
2018-08-04T00:40:39.961Z,19.89
2018-08-04T00:43:08.512Z,19.89
2018-08-04T00:45:37.028Z,19.89
2018-08-04T00:48:05.732Z,19.86
2018-08-04T00:50:34.237Z,19.87
2018-08-04T00:53:02.818Z,19.95
2018-08-04T00:55:31.309Z,20.00
2018-08-04T00:57:59.810Z,20.08
2018-08-04T01:00:28.292Z,20.04
2018-08-04T01:02:56.781Z,20.10
2018-08-04T01:05:25.689Z,20.11
2018-08-04T01:07:54.129Z,20.07
2018-08-04T01:10:22.672Z,20.11
2018-08-04T01:12:51.249Z,20.07
2018-08-04T01:15:19.749Z,20.09
2018-08-04T01:17:48.309Z,20.12
2018-08-04T01:20:16.778Z,20.14
2018-08-04T01:22:45.310Z,20.12
2018-08-04T01:25:13.781Z,20.06
2018-08-04T01:27:42.236Z,20.02
2018-08-04T01:30:10.805Z,20.00
2018-08-04T01:32:39.298Z,20.01
2018-08-04T01:35:07.758Z,19.92
2018-08-04T01:37:36.310Z,19.85
2018-08-04T01:40:05.897Z,19.85
2018-08-04T01:42:34.458Z,19.83
2018-08-04T01:45:02.994Z,19.81
2018-08-04T01:47:31.544Z,19.80
2018-08-04T01:50:00.010Z,19.82
2018-08-04T01:52:28.530Z,19.83
2018-08-04T01:54:57.021Z,19.80
2018-08-04T01:57:25.642Z,19.87
2018-08-04T01:59:54.131Z,19.82
2018-08-04T02:02:22.945Z,19.84
2018-08-04T02:04:51.435Z,19.81
2018-08-04T02:07:20.087Z,19.88
2018-08-04T02:09:48.647Z,19.85
2018-08-04T02:12:17.185Z,19.83
2018-08-04T02:14:45.669Z,19.84
2018-08-04T02:17:14.174Z,19.84
2018-08-04T02:19:42.676Z,19.90
2018-08-04T02:22:11.228Z,19.85
2018-08-04T02:24:39.741Z,19.78
2018-08-04T02:27:08.250Z,19.84
2018-08-04T02:29:36.767Z,19.93
2018-08-04T02:32:05.260Z,19.91
2018-08-04T02:34:34.053Z,19.89
2018-08-04T02:37:02.565Z,19.97
2018-08-04T02:39:31.109Z,19.96
2018-08-04T02:41:59.738Z,19.99
2018-08-04T02:44:28.438Z,19.96
2018-08-04T02:46:56.928Z,19.91
2018-08-04T02:49:25.494Z,19.91
2018-08-04T02:51:54.034Z,19.88
2018-08-04T02:54:22.513Z,19.87
2018-08-04T02:56:51.114Z,19.89
2018-08-04T02:59:19.641Z,19.86
2018-08-04T03:01:48.189Z,19.77
2018-08-04T03:04:17.137Z,19.84
2018-08-04T03:06:45.641Z,19.83
2018-08-04T03:09:14.265Z,19.82
2018-08-04T03:11:42.774Z,19.66
2018-08-04T03:14:11.241Z,19.69
2018-08-04T03:16:39.769Z,19.74
2018-08-04T03:19:08.295Z,19.70
2018-08-04T03:21:36.827Z,19.67
2018-08-04T03:24:05.360Z,19.67
2018-08-04T03:26:33.875Z,19.61
2018-08-04T03:29:02.382Z,19.62
2018-08-04T03:31:30.917Z,19.56
2018-08-04T03:33:59.396Z,19.56
2018-08-04T03:36:27.961Z,19.53
2018-08-04T03:38:56.448Z,19.50
2018-08-04T03:41:24.974Z,19.56
2018-08-04T03:43:53.546Z,19.59
2018-08-04T03:46:22.030Z,19.59
2018-08-04T03:48:50.564Z,19.59
2018-08-04T03:51:19.197Z,19.54
2018-08-04T03:53:47.798Z,19.58
2018-08-04T03:56:16.249Z,19.57
2018-08-04T03:58:44.844Z,19.58
2018-08-04T04:01:13.353Z,19.47
2018-08-04T04:03:41.854Z,19.52
2018-08-04T04:06:10.378Z,19.51
2018-08-04T04:08:38.861Z,19.46
2018-08-04T04:11:07.428Z,19.46
2018-08-04T04:13:35.913Z,19.44
2018-08-04T04:16:04.377Z,19.52
2018-08-04T04:18:32.902Z,19.49
2018-08-04T04:21:01.442Z,19.37
2018-08-04T04:23:29.932Z,19.33
2018-08-04T04:25:58.441Z,19.38
2018-08-04T04:28:26.939Z,19.32
2018-08-04T04:30:56.247Z,19.34
2018-08-04T04:33:24.776Z,19.35
2018-08-04T04:35:53.679Z,19.35
2018-08-04T04:38:22.618Z,19.34
2018-08-04T04:40:51.109Z,19.28
2018-08-04T04:43:19.593Z,19.34
2018-08-04T04:45:48.118Z,19.43
2018-08-04T04:48:16.592Z,19.46
2018-08-04T04:50:45.097Z,19.50
2018-08-04T04:53:13.585Z,19.49
2018-08-04T04:55:42.141Z,19.59
2018-08-04T04:58:10.630Z,19.65
2018-08-04T05:00:39.089Z,19.69
2018-08-04T05:03:07.662Z,19.71
2018-08-04T05:05:36.193Z,19.63
2018-08-04T05:08:04.738Z,19.69
2018-08-04T05:10:33.260Z,19.68
2018-08-04T05:13:01.822Z,19.73
2018-08-04T05:15:30.312Z,19.75
2018-08-04T05:17:58.810Z,19.84
2018-08-04T05:20:27.316Z,19.87
2018-08-04T05:22:55.797Z,20.05
2018-08-04T05:25:24.321Z,20.27
2018-08-04T05:27:52.826Z,20.42
2018-08-04T05:30:21.341Z,21.46
2018-08-04T05:32:49.865Z,23.15
2018-08-04T05:35:18.630Z,22.60
2018-08-04T05:37:47.181Z,23.41
2018-08-04T05:40:15.693Z,25.80
2018-08-04T05:42:44.168Z,27.79
2018-08-04T05:45:12.710Z,28.84
2018-08-04T05:47:41.192Z,30.74
2018-08-04T05:50:09.717Z,30.98
2018-08-04T05:52:38.265Z,31.93
2018-08-04T05:55:06.958Z,32.90
2018-08-04T05:57:35.445Z,34.57
2018-08-04T06:00:04.495Z,35.82
2018-08-04T06:02:33.001Z,35.59
2018-08-04T06:05:01.499Z,34.58
2018-08-04T06:07:30.050Z,34.61
2018-08-04T06:09:58.609Z,35.41
2018-08-04T06:12:27.110Z,35.93
2018-08-04T06:14:55.600Z,36.39
2018-08-04T06:17:24.089Z,37.03
2018-08-04T06:19:52.962Z,36.50
2018-08-04T06:22:21.459Z,36.70
2018-08-04T06:24:49.969Z,37.47
2018-08-04T06:27:18.449Z,34.28
2018-08-04T06:29:47.117Z,33.51
2018-08-04T06:32:15.692Z,32.63
2018-08-04T06:34:44.332Z,32.18
2018-08-04T06:37:12.842Z,31.93
2018-08-04T06:39:41.317Z,32.36
2018-08-04T06:42:09.976Z,32.68
2018-08-04T06:44:38.529Z,33.66
2018-08-04T06:47:07.946Z,33.42
2018-08-04T06:49:36.424Z,34.14
2018-08-04T06:52:05.049Z,35.23
2018-08-04T06:54:33.930Z,36.65
2018-08-04T06:57:02.430Z,36.20
2018-08-04T06:59:30.997Z,36.24
2018-08-04T07:01:59.521Z,35.67
2018-08-04T07:04:28.011Z,31.22
2018-08-04T07:06:56.709Z,27.36
2018-08-04T07:09:25.217Z,25.74
2018-08-04T07:11:53.741Z,24.68
2018-08-04T07:14:22.231Z,24.47
2018-08-04T07:16:50.731Z,24.51
2018-08-04T07:19:19.244Z,24.35
2018-08-04T07:21:47.745Z,24.28
2018-08-04T07:24:16.219Z,24.49
2018-08-04T07:26:44.789Z,24.64
2018-08-04T07:29:13.344Z,24.49
2018-08-04T07:31:41.846Z,24.51
2018-08-04T07:34:10.719Z,24.50
2018-08-04T07:36:39.216Z,24.58
2018-08-04T07:39:09.183Z,24.80
2018-08-04T07:41:38.118Z,24.95
2018-08-04T07:44:06.873Z,25.09
2018-08-04T07:46:35.879Z,25.02
2018-08-04T07:49:04.466Z,25.11
2018-08-04T07:51:33.294Z,25.30
2018-08-04T07:54:01.825Z,25.30
2018-08-04T07:56:30.509Z,25.44
2018-08-04T07:58:59.006Z,25.37
2018-08-04T08:01:27.494Z,25.39
2018-08-04T08:03:55.993Z,25.53
2018-08-04T08:06:24.489Z,25.74
2018-08-04T08:08:53.015Z,25.68
2018-08-04T08:11:21.604Z,25.70
2018-08-04T08:13:50.169Z,25.80
2018-08-04T08:16:18.647Z,25.86
2018-08-04T08:18:47.179Z,25.76
2018-08-04T08:21:15.730Z,25.73
2018-08-04T08:23:44.201Z,25.59
2018-08-04T08:26:14.008Z,25.75
2018-08-04T08:28:43.186Z,25.94
2018-08-04T08:31:11.693Z,25.96
2018-08-04T08:33:41.021Z,25.83
2018-08-04T08:36:10.069Z,25.84
2018-08-04T08:38:38.633Z,25.95
2018-08-04T08:41:07.213Z,25.96
2018-08-04T08:43:35.760Z,26.11
2018-08-04T08:46:04.269Z,26.24
2018-08-04T08:48:32.745Z,26.35
2018-08-04T08:51:01.301Z,26.51
2018-08-04T08:53:30.070Z,26.42
2018-08-04T08:55:58.485Z,26.50
2018-08-04T08:58:27.000Z,26.44
2018-08-04T09:00:55.532Z,26.56
2018-08-04T09:03:24.001Z,26.48
2018-08-04T09:05:52.501Z,26.52
2018-08-04T09:08:20.982Z,26.39
2018-08-04T09:10:49.881Z,26.67
2018-08-04T09:13:18.413Z,26.84
2018-08-04T09:15:46.963Z,26.78
2018-08-04T09:18:15.449Z,26.81
2018-08-04T09:20:44.473Z,26.88
2018-08-04T09:23:12.997Z,26.91
2018-08-04T09:25:41.602Z,26.88
2018-08-04T09:28:10.105Z,26.85
2018-08-04T09:30:38.617Z,26.97
2018-08-04T09:33:07.174Z,27.09
2018-08-04T09:35:35.661Z,27.06
2018-08-04T09:38:04.194Z,27.11
2018-08-04T09:40:32.707Z,27.32
2018-08-04T09:43:01.205Z,27.35
2018-08-04T09:45:29.745Z,27.30
2018-08-04T09:47:58.238Z,27.26
2018-08-04T09:50:27.132Z,27.31
2018-08-04T09:52:55.628Z,27.06
2018-08-04T09:55:24.133Z,27.19
2018-08-04T09:57:52.718Z,27.33
2018-08-04T10:00:26.530Z,27.72
2018-08-04T10:02:55.068Z,27.73
2018-08-04T10:05:23.596Z,27.98
2018-08-04T10:07:52.107Z,27.93
2018-08-04T10:10:20.593Z,27.80
2018-08-04T10:12:49.129Z,28.03
2018-08-04T10:15:17.649Z,28.28
2018-08-04T10:17:46.202Z,28.41
2018-08-04T10:20:14.712Z,28.36
2018-08-04T10:22:43.170Z,28.13
2018-08-04T10:25:11.701Z,28.26
2018-08-04T10:27:40.217Z,28.09
2018-08-04T10:30:10.812Z,28.42
2018-08-04T10:32:39.431Z,28.06
2018-08-04T10:35:08.692Z,28.21
2018-08-04T10:37:37.169Z,28.35
2018-08-04T10:40:06.358Z,28.23
2018-08-04T10:42:34.841Z,28.32
2018-08-04T10:45:03.425Z,28.56
2018-08-04T10:47:31.900Z,28.45
2018-08-04T10:50:00.461Z,28.29
2018-08-04T10:52:29.114Z,28.53
2018-08-04T10:54:57.630Z,28.65
2018-08-04T10:57:26.128Z,28.69
2018-08-04T10:59:54.665Z,28.59
2018-08-04T11:02:23.227Z,28.72
2018-08-04T11:04:51.769Z,28.84
2018-08-04T11:07:20.523Z,28.92
2018-08-04T11:09:49.030Z,29.26
2018-08-04T11:12:17.593Z,29.25
2018-08-04T11:14:46.105Z,29.27
2018-08-04T11:17:14.594Z,29.49
2018-08-04T11:19:43.137Z,29.48
2018-08-04T11:22:11.997Z,29.60
2018-08-04T11:24:40.466Z,29.26
2018-08-04T11:27:09.013Z,29.56
2018-08-04T11:29:37.861Z,29.51
2018-08-04T11:32:06.617Z,29.90
2018-08-04T11:34:35.126Z,29.65
2018-08-04T11:37:03.669Z,29.59
2018-08-04T11:39:32.151Z,29.70
2018-08-04T11:42:00.682Z,29.83
2018-08-04T11:44:29.149Z,29.96
2018-08-04T11:46:58.083Z,29.80
2018-08-04T11:49:26.738Z,30.04
2018-08-04T11:51:55.209Z,29.91
2018-08-04T11:54:23.689Z,30.13
2018-08-04T11:56:52.214Z,30.23
2018-08-04T11:59:20.701Z,30.27
2018-08-04T12:01:49.231Z,30.46
2018-08-04T12:04:17.762Z,30.83
2018-08-04T12:06:46.662Z,30.54
2018-08-04T12:09:15.221Z,30.24
2018-08-04T12:11:43.777Z,30.27
2018-08-04T12:14:12.290Z,29.87
2018-08-04T12:16:40.777Z,30.00
2018-08-04T12:19:09.252Z,30.06
2018-08-04T12:21:37.746Z,30.44
2018-08-04T12:24:06.340Z,30.56
2018-08-04T12:26:34.858Z,30.59
2018-08-04T12:29:03.329Z,30.74
2018-08-04T12:31:31.918Z,30.81
2018-08-04T12:34:00.467Z,30.90
2018-08-04T12:36:28.964Z,30.79
2018-08-04T12:38:57.482Z,30.77
2018-08-04T12:41:25.988Z,31.06
2018-08-04T12:43:54.492Z,31.17
2018-08-04T12:46:22.956Z,31.41
2018-08-04T12:48:51.436Z,31.02
2018-08-04T12:51:19.996Z,31.04
2018-08-04T12:53:48.465Z,31.06
2018-08-04T12:56:16.978Z,31.20
2018-08-04T12:58:45.519Z,31.52
2018-08-04T13:01:14.062Z,30.77
2018-08-04T13:03:42.580Z,30.72
2018-08-04T13:06:11.075Z,30.73
2018-08-04T13:08:39.571Z,30.66
2018-08-04T13:11:08.059Z,30.61
2018-08-04T13:13:36.569Z,30.29
2018-08-04T13:16:05.095Z,30.42
2018-08-04T13:18:33.598Z,30.49
2018-08-04T13:21:02.109Z,30.11
2018-08-04T13:23:30.712Z,30.19
2018-08-04T13:25:59.213Z,30.30
2018-08-04T13:28:27.773Z,30.33
2018-08-04T13:30:56.286Z,30.25
2018-08-04T13:33:24.792Z,29.97
2018-08-04T13:35:53.390Z,30.14
2018-08-04T13:38:22.078Z,30.21
2018-08-04T13:40:50.657Z,30.20
2018-08-04T13:43:19.232Z,30.29
2018-08-04T13:45:47.747Z,30.56
2018-08-04T13:48:16.326Z,30.43
2018-08-04T13:50:44.833Z,30.57
2018-08-04T13:53:13.325Z,30.65
2018-08-04T13:55:41.853Z,30.61
2018-08-04T13:58:10.374Z,30.45
2018-08-04T14:00:38.898Z,30.66
2018-08-04T14:03:07.467Z,30.78
2018-08-04T14:05:35.991Z,31.19
2018-08-04T14:08:04.590Z,31.27
2018-08-04T14:10:33.076Z,31.04
2018-08-04T14:13:02.042Z,31.13
2018-08-04T14:15:30.560Z,31.21
2018-08-04T14:17:59.416Z,31.01
2018-08-04T14:20:27.888Z,31.20
2018-08-04T14:22:56.369Z,31.09
2018-08-04T14:25:24.916Z,30.82
2018-08-04T14:27:53.402Z,31.03
2018-08-04T14:30:21.930Z,30.91
2018-08-04T14:32:50.413Z,30.96
2018-08-04T14:35:18.933Z,31.18
2018-08-04T14:37:47.461Z,31.29
2018-08-04T14:40:16.061Z,31.30
2018-08-04T14:42:44.602Z,30.78
2018-08-04T14:45:13.101Z,30.46
2018-08-04T14:47:41.583Z,30.15
2018-08-04T14:50:10.179Z,30.29
2018-08-04T14:52:38.745Z,30.20
2018-08-04T14:55:07.320Z,30.30
2018-08-04T14:57:35.842Z,30.37
2018-08-04T15:00:05.057Z,30.22
2018-08-04T15:02:33.545Z,30.29
2018-08-04T15:05:02.338Z,30.28
2018-08-04T15:07:30.785Z,30.12
2018-08-04T15:09:59.313Z,30.33
2018-08-04T15:12:27.909Z,30.52
2018-08-04T15:14:56.409Z,30.63
2018-08-04T15:17:24.893Z,30.69
2018-08-04T15:19:53.416Z,30.68
2018-08-04T15:22:21.947Z,30.87
2018-08-04T15:24:50.635Z,30.76
2018-08-04T15:27:19.155Z,30.33
2018-08-04T15:29:47.650Z,29.92
2018-08-04T15:32:16.173Z,29.79
2018-08-04T15:34:44.734Z,29.74
2018-08-04T15:37:13.556Z,29.66
2018-08-04T15:39:42.078Z,29.51
2018-08-04T15:42:10.589Z,29.32
2018-08-04T15:44:39.121Z,29.48
2018-08-04T15:47:07.681Z,29.43
2018-08-04T15:49:36.216Z,29.22
2018-08-04T15:52:04.776Z,29.06
2018-08-04T15:54:33.270Z,28.85
2018-08-04T15:57:01.842Z,28.87
2018-08-04T15:59:30.357Z,29.20
2018-08-04T16:01:58.816Z,28.98
2018-08-04T16:04:27.329Z,28.98
2018-08-04T16:06:55.809Z,29.09
2018-08-04T16:09:24.308Z,29.14
2018-08-04T16:11:52.861Z,29.34
2018-08-04T16:14:21.529Z,29.16
2018-08-04T16:16:50.166Z,28.62
2018-08-04T16:19:18.878Z,28.25
2018-08-04T16:21:47.392Z,27.95
2018-08-04T16:24:15.924Z,27.99
2018-08-04T16:26:44.509Z,28.03
2018-08-04T16:29:12.987Z,27.76
2018-08-04T16:31:41.501Z,27.79
2018-08-04T16:34:09.992Z,27.82
2018-08-04T16:36:38.492Z,28.02
2018-08-04T16:39:09.609Z,28.40
2018-08-04T16:41:38.292Z,28.25
2018-08-04T16:44:06.970Z,28.40
2018-08-04T16:46:35.702Z,28.27
2018-08-04T16:49:04.177Z,27.86
2018-08-04T16:51:32.713Z,27.67
2018-08-04T16:54:01.208Z,27.11
2018-08-04T16:56:29.696Z,27.11
2018-08-04T16:58:58.222Z,26.96
2018-08-04T17:01:26.728Z,27.05
2018-08-04T17:03:55.597Z,27.17
2018-08-04T17:06:24.114Z,26.85
2018-08-04T17:08:52.621Z,26.79
2018-08-04T17:11:21.171Z,26.61
2018-08-04T17:13:49.660Z,26.66
2018-08-04T17:16:18.197Z,26.61
2018-08-04T17:18:46.677Z,26.33
2018-08-04T17:21:15.207Z,26.21
2018-08-04T17:23:44.021Z,26.10
2018-08-04T17:26:12.590Z,26.18
2018-08-04T17:28:41.102Z,26.16
2018-08-04T17:31:09.578Z,26.19
2018-08-04T17:33:38.102Z,26.25
2018-08-04T17:36:06.621Z,26.34
2018-08-04T17:38:35.169Z,26.23
2018-08-04T17:41:03.668Z,25.85
2018-08-04T17:43:32.189Z,25.93
2018-08-04T17:46:00.699Z,26.04
2018-08-04T17:48:29.239Z,25.97
2018-08-04T17:50:57.753Z,25.75
2018-08-04T17:53:26.246Z,25.74
2018-08-04T17:55:54.769Z,25.75
2018-08-04T17:58:23.297Z,25.52
2018-08-04T18:00:51.803Z,25.41
2018-08-04T18:03:20.393Z,25.36
2018-08-04T18:05:49.857Z,25.40
2018-08-04T18:08:18.402Z,25.28
2018-08-04T18:10:46.869Z,25.24
2018-08-04T18:13:15.361Z,25.19
2018-08-04T18:15:43.897Z,25.28
2018-08-04T18:18:12.400Z,25.29
2018-08-04T18:20:40.880Z,25.49
2018-08-04T18:23:09.381Z,25.30
2018-08-04T18:25:37.901Z,25.13
2018-08-04T18:28:06.399Z,24.89
2018-08-04T18:30:34.913Z,24.56
2018-08-04T18:33:03.780Z,24.48
2018-08-04T18:35:32.309Z,24.41
2018-08-04T18:38:00.804Z,24.23
2018-08-04T18:40:29.373Z,24.06
2018-08-04T18:42:58.290Z,23.90
2018-08-04T18:45:26.930Z,23.79
2018-08-04T18:47:55.436Z,23.70
2018-08-04T18:50:23.961Z,23.61
2018-08-04T18:52:52.697Z,23.58
2018-08-04T18:55:21.192Z,23.52
2018-08-04T18:57:49.927Z,23.46
2018-08-04T19:00:18.433Z,23.35
2018-08-04T19:02:46.933Z,23.21
2018-08-04T19:05:15.505Z,23.12
2018-08-04T19:07:44.038Z,23.01
2018-08-04T19:10:12.635Z,22.97
2018-08-04T19:12:41.126Z,22.85
2018-08-04T19:15:09.611Z,22.73
2018-08-04T19:17:38.129Z,22.70
2018-08-04T19:20:06.669Z,22.60
2018-08-04T19:22:35.133Z,22.51
2018-08-04T19:25:03.687Z,22.47
2018-08-04T19:29:59.637Z,22.32
2018-08-04T19:32:28.134Z,22.21
2018-08-04T19:34:56.641Z,22.23
2018-08-04T19:37:25.149Z,22.18
2018-08-04T19:39:53.697Z,22.05
2018-08-04T19:42:22.258Z,21.97
2018-08-04T19:44:50.756Z,21.94
2018-08-04T19:47:19.250Z,21.89
2018-08-04T19:49:47.754Z,21.91
2018-08-04T19:52:16.296Z,21.77
2018-08-04T19:54:44.926Z,21.82
2018-08-04T19:57:13.462Z,21.73
2018-08-04T19:59:42.370Z,21.67
2018-08-04T20:02:10.853Z,21.72
2018-08-04T20:04:39.309Z,21.74
2018-08-04T20:07:07.825Z,21.77
2018-08-04T20:09:36.284Z,21.68
2018-08-04T20:12:04.882Z,21.55
2018-08-04T20:14:33.357Z,21.46
2018-08-04T20:17:01.876Z,21.39
2018-08-04T20:19:30.441Z,21.33
2018-08-04T20:21:58.959Z,21.26
2018-08-04T20:24:27.463Z,21.22
2018-08-04T20:26:56.014Z,21.25
2018-08-04T20:29:24.600Z,21.21
2018-08-04T20:31:53.051Z,21.16
2018-08-04T20:34:21.619Z,21.22
2018-08-04T20:36:50.129Z,21.25
2018-08-04T20:39:18.611Z,21.23
2018-08-04T20:41:47.173Z,21.20
2018-08-04T20:44:15.651Z,21.19
2018-08-04T20:46:44.187Z,21.23
2018-08-04T20:49:12.634Z,21.30
2018-08-04T20:51:41.202Z,21.39
2018-08-04T20:54:09.680Z,21.43
2018-08-04T20:56:38.228Z,21.44
2018-08-04T20:59:06.809Z,21.49
2018-08-04T21:01:39.152Z,21.53
2018-08-04T21:04:07.766Z,21.54
2018-08-04T21:06:36.229Z,21.53
2018-08-04T21:09:07.010Z,21.44
2018-08-04T21:11:35.693Z,21.38
2018-08-04T21:14:04.200Z,21.31
2018-08-04T21:16:32.697Z,21.29
2018-08-04T21:19:01.212Z,21.30
2018-08-04T21:21:29.687Z,21.34
2018-08-04T21:23:58.169Z,21.31
2018-08-04T21:26:26.688Z,21.34
2018-08-04T21:28:55.189Z,21.35
2018-08-04T21:31:23.691Z,21.25
2018-08-04T21:33:52.528Z,21.22
2018-08-04T21:36:20.984Z,21.07
2018-08-04T21:38:49.482Z,21.01
2018-08-04T21:41:17.981Z,20.95
2018-08-04T21:43:46.507Z,20.95
2018-08-04T21:46:15.172Z,20.89
2018-08-04T21:48:43.633Z,20.81
2018-08-04T21:51:12.142Z,20.74
2018-08-04T21:53:40.639Z,20.67
2018-08-04T21:56:09.151Z,20.67
2018-08-04T21:58:37.652Z,20.70
2018-08-04T22:01:11.434Z,20.72
2018-08-04T22:03:39.990Z,20.71
2018-08-04T22:06:08.492Z,20.67
2018-08-04T22:08:48.257Z,20.63
2018-08-04T22:11:16.814Z,20.63
2018-08-04T22:13:45.446Z,20.54
2018-08-04T22:16:13.909Z,20.51
2018-08-04T22:18:43.134Z,20.43
2018-08-04T22:21:12.060Z,20.33
2018-08-04T22:23:40.565Z,20.23
2018-08-04T22:26:09.053Z,20.16
2018-08-04T22:28:37.561Z,20.06
2018-08-04T22:31:06.183Z,20.00
2018-08-04T22:33:34.668Z,19.97
2018-08-04T22:36:03.162Z,19.92
2018-08-04T22:38:31.632Z,19.84
2018-08-04T22:41:00.143Z,19.79
2018-08-04T22:43:28.626Z,19.76
2018-08-04T22:46:13.136Z,19.70
2018-08-04T22:48:42.788Z,19.64
2018-08-04T22:51:11.310Z,19.58
2018-08-04T22:53:39.957Z,19.56
2018-08-04T22:56:08.498Z,19.44
2018-08-04T22:58:36.975Z,19.36
2018-08-04T23:01:05.672Z,19.28
2018-08-04T23:03:34.312Z,19.23
2018-08-04T23:06:02.834Z,19.25
2018-08-04T23:08:31.405Z,19.15
2018-08-04T23:10:59.923Z,19.09
2018-08-04T23:13:28.395Z,19.07
2018-08-04T23:15:56.934Z,19.03
2018-08-04T23:18:25.458Z,19.00
2018-08-04T23:20:53.987Z,18.96
2018-08-04T23:23:22.522Z,19.03
2018-08-04T23:25:51.164Z,19.15
2018-08-04T23:28:19.701Z,19.28
2018-08-04T23:30:48.208Z,19.30
2018-08-04T23:33:17.077Z,19.32
2018-08-04T23:35:45.569Z,19.35
2018-08-04T23:38:14.075Z,19.27
2018-08-04T23:40:42.584Z,19.16
2018-08-04T23:43:11.054Z,19.03
2018-08-04T23:45:39.532Z,18.92
2018-08-04T23:48:08.028Z,18.82
2018-08-04T23:50:36.953Z,18.76
2018-08-04T23:53:05.461Z,18.70
2018-08-04T23:55:33.943Z,18.62
2018-08-04T23:58:02.645Z,18.59
